sensor_id;sensor_type;location;lat;lon;timestamp;temperature;humidity
27797;DHT22;15177;50.844;4.412;2022-09-28T00:00:29;11.30;99.90
27797;DHT22;15177;50.844;4.412;2022-09-28T00:02:57;11.30;99.90
27797;DHT22;15177;50.844;4.412;2022-09-28T00:05:26;11.20;99.90
27797;DHT22;15177;50.844;4.412;2022-09-28T00:07:54;11.30;99.90
27797;DHT22;15177;50.844;4.412;2022-09-28T00:10:21;11.20;99.90
27797;DHT22;15177;50.844;4.412;2022-09-28T00:12:50;11.20;99.90
27797;DHT22;15177;50.844;4.412;2022-09-28T00:15:17;11.20;99.90
27797;DHT22;15177;50.844;4.412;2022-09-28T00:17:43;11.20;99.90
27797;DHT22;15177;50.844;4.412;2022-09-28T00:20:10;11.20;99.90
27797;DHT22;15177;50.844;4.412;2022-09-28T00:22:36;11.30;99.90
27797;DHT22;15177;50.844;4.412;2022-09-28T00:25:03;11.40;99.90
27797;DHT22;15177;50.844;4.412;2022-09-28T00:27:28;11.30;99.90
27797;DHT22;15177;50.844;4.412;2022-09-28T00:29:54;11.30;99.90
27797;DHT22;15177;50.844;4.412;2022-09-28T00:32:20;11.20;99.90
27797;DHT22;15177;50.844;4.412;2022-09-28T00:34:49;11.10;99.90
27797;DHT22;15177;50.844;4.412;2022-09-28T00:37:16;11.20;99.90
27797;DHT22;15177;50.844;4.412;2022-09-28T00:39:43;11.10;99.90
27797;DHT22;15177;50.844;4.412;2022-09-28T00:45:04;11.10;99.90
27797;DHT22;15177;50.844;4.412;2022-09-28T00:50:06;11.30;99.90
27797;DHT22;15177;50.844;4.412;2022-09-28T00:52:41;11.30;99.90
27797;DHT22;15177;50.844;4.412;2022-09-28T00:55:14;11.40;99.90
27797;DHT22;15177;50.844;4.412;2022-09-28T00:57:45;11.50;99.90
27797;DHT22;15177;50.844;4.412;2022-09-28T01:00:14;11.50;99.90
27797;DHT22;15177;50.844;4.412;2022-09-28T01:02:42;11.50;99.90
27797;DHT22;15177;50.844;4.412;2022-09-28T01:05:09;11.40;99.90
27797;DHT22;15177;50.844;4.412;2022-09-28T01:07:36;11.50;99.90
27797;DHT22;15177;50.844;4.412;2022-09-28T01:10:03;11.50;99.90
27797;DHT22;15177;50.844;4.412;2022-09-28T01:12:29;11.60;99.90
27797;DHT22;15177;50.844;4.412;2022-09-28T01:14:56;11.60;99.90
27797;DHT22;15177;50.844;4.412;2022-09-28T01:17:32;11.60;99.90
27797;DHT22;15177;50.844;4.412;2022-09-28T01:20:31;11.50;99.90
27797;DHT22;15177;50.844;4.412;2022-09-28T01:28:34;11.50;99.90
27797;DHT22;15177;50.844;4.412;2022-09-28T01:31:14;11.50;99.90
27797;DHT22;15177;50.844;4.412;2022-09-28T01:36:55;11.40;99.90
27797;DHT22;15177;50.844;4.412;2022-09-28T01:39:30;11.30;99.90
27797;DHT22;15177;50.844;4.412;2022-09-28T01:42:01;11.30;99.90
27797;DHT22;15177;50.844;4.412;2022-09-28T01:44:30;11.10;99.90
27797;DHT22;15177;50.844;4.412;2022-09-28T01:46:58;11.10;99.90
27797;DHT22;15177;50.844;4.412;2022-09-28T01:49:36;11.10;99.90
27797;DHT22;15177;50.844;4.412;2022-09-28T01:52:58;11.20;99.90
27797;DHT22;15177;50.844;4.412;2022-09-28T01:55:31;11.20;99.90
27797;DHT22;15177;50.844;4.412;2022-09-28T01:58:16;11.20;99.90
27797;DHT22;15177;50.844;4.412;2022-09-28T02:00:47;11.20;99.90
27797;DHT22;15177;50.844;4.412;2022-09-28T02:03:50;11.30;99.90
27797;DHT22;15177;50.844;4.412;2022-09-28T02:06:36;11.20;99.90
27797;DHT22;15177;50.844;4.412;2022-09-28T02:09:08;11.10;99.90
27797;DHT22;15177;50.844;4.412;2022-09-28T02:11:36;11.40;99.90
27797;DHT22;15177;50.844;4.412;2022-09-28T02:14:03;11.40;99.90
27797;DHT22;15177;50.844;4.412;2022-09-28T02:16:39;11.40;99.90
27797;DHT22;15177;50.844;4.412;2022-09-28T02:19:09;11.30;99.90
27797;DHT22;15177;50.844;4.412;2022-09-28T02:24:36;11.40;99.90
27797;DHT22;15177;50.844;4.412;2022-09-28T02:27:12;11.40;99.90
27797;DHT22;15177;50.844;4.412;2022-09-28T02:29:40;11.30;99.90
27797;DHT22;15177;50.844;4.412;2022-09-28T02:32:05;11.30;99.90
27797;DHT22;15177;50.844;4.412;2022-09-28T02:34:31;11.40;99.90
27797;DHT22;15177;50.844;4.412;2022-09-28T02:36:58;11.50;99.90
27797;DHT22;15177;50.844;4.412;2022-09-28T02:39:24;11.50;99.90
27797;DHT22;15177;50.844;4.412;2022-09-28T02:42:28;11.50;99.90
27797;DHT22;15177;50.844;4.412;2022-09-28T02:48:14;11.30;99.90
27797;DHT22;15177;50.844;4.412;2022-09-28T02:50:50;11.30;99.90
27797;DHT22;15177;50.844;4.412;2022-09-28T02:53:51;11.10;99.90
27797;DHT22;15177;50.844;4.412;2022-09-28T03:02:34;11.00;99.90
27797;DHT22;15177;50.844;4.412;2022-09-28T03:07:45;10.80;99.90
27797;DHT22;15177;50.844;4.412;2022-09-28T03:12:47;10.80;99.90
27797;DHT22;15177;50.844;4.412;2022-09-28T03:15:21;10.70;99.90
27797;DHT22;15177;50.844;4.412;2022-09-28T03:17:47;10.70;99.90
27797;DHT22;15177;50.844;4.412;2022-09-28T03:20:12;10.60;99.90
27797;DHT22;15177;50.844;4.412;2022-09-28T03:22:38;10.60;99.90
27797;DHT22;15177;50.844;4.412;2022-09-28T03:25:05;10.60;99.90
27797;DHT22;15177;50.844;4.412;2022-09-28T03:27:31;10.60;99.90
27797;DHT22;15177;50.844;4.412;2022-09-28T03:29:57;10.60;99.90
27797;DHT22;15177;50.844;4.412;2022-09-28T03:32:23;10.70;99.90
27797;DHT22;15177;50.844;4.412;2022-09-28T03:34:48;10.70;99.90
27797;DHT22;15177;50.844;4.412;2022-09-28T03:37:14;10.80;99.90
27797;DHT22;15177;50.844;4.412;2022-09-28T03:39:40;10.80;99.90
27797;DHT22;15177;50.844;4.412;2022-09-28T03:42:05;10.90;99.90
27797;DHT22;15177;50.844;4.412;2022-09-28T03:44:31;10.90;99.90
27797;DHT22;15177;50.844;4.412;2022-09-28T03:46:56;11.00;99.90
27797;DHT22;15177;50.844;4.412;2022-09-28T03:49:22;11.10;99.90
27797;DHT22;15177;50.844;4.412;2022-09-28T03:51:48;11.00;99.90
27797;DHT22;15177;50.844;4.412;2022-09-28T03:54:13;11.00;99.90
27797;DHT22;15177;50.844;4.412;2022-09-28T03:56:39;10.90;99.90
27797;DHT22;15177;50.844;4.412;2022-09-28T03:59:06;10.80;99.90
27797;DHT22;15177;50.844;4.412;2022-09-28T04:01:32;10.60;99.90
27797;DHT22;15177;50.844;4.412;2022-09-28T04:03:58;10.60;99.90
27797;DHT22;15177;50.844;4.412;2022-09-28T04:06:24;10.60;99.90
27797;DHT22;15177;50.844;4.412;2022-09-28T04:08:49;10.70;99.90
27797;DHT22;15177;50.844;4.412;2022-09-28T04:11:15;10.60;99.90
27797;DHT22;15177;50.844;4.412;2022-09-28T04:13:41;10.60;99.90
27797;DHT22;15177;50.844;4.412;2022-09-28T04:16:09;10.70;99.90
27797;DHT22;15177;50.844;4.412;2022-09-28T04:18:34;10.60;99.90
27797;DHT22;15177;50.844;4.412;2022-09-28T04:21:01;10.60;99.90
27797;DHT22;15177;50.844;4.412;2022-09-28T04:23:34;10.60;99.90
27797;DHT22;15177;50.844;4.412;2022-09-28T04:26:03;10.60;99.90
27797;DHT22;15177;50.844;4.412;2022-09-28T04:28:29;10.60;99.90
27797;DHT22;15177;50.844;4.412;2022-09-28T04:31:21;10.50;99.90
27797;DHT22;15177;50.844;4.412;2022-09-28T04:33:47;10.50;99.90
27797;DHT22;15177;50.844;4.412;2022-09-28T04:36:13;10.60;99.90
27797;DHT22;15177;50.844;4.412;2022-09-28T04:38:39;10.50;99.90
27797;DHT22;15177;50.844;4.412;2022-09-28T04:41:07;10.50;99.90
27797;DHT22;15177;50.844;4.412;2022-09-28T04:43:33;10.50;99.90
27797;DHT22;15177;50.844;4.412;2022-09-28T04:45:59;10.50;99.90
27797;DHT22;15177;50.844;4.412;2022-09-28T04:48:26;10.50;99.90
27797;DHT22;15177;50.844;4.412;2022-09-28T04:50:56;10.50;99.90
27797;DHT22;15177;50.844;4.412;2022-09-28T04:53:22;10.40;99.90
27797;DHT22;15177;50.844;4.412;2022-09-28T04:56:15;10.40;99.90
27797;DHT22;15177;50.844;4.412;2022-09-28T04:58:41;10.40;99.90
27797;DHT22;15177;50.844;4.412;2022-09-28T05:01:11;10.40;99.90
27797;DHT22;15177;50.844;4.412;2022-09-28T05:03:37;10.40;99.90
27797;DHT22;15177;50.844;4.412;2022-09-28T05:06:03;10.40;99.90
27797;DHT22;15177;50.844;4.412;2022-09-28T05:08:32;10.40;99.90
27797;DHT22;15177;50.844;4.412;2022-09-28T05:11:01;10.50;99.90
27797;DHT22;15177;50.844;4.412;2022-09-28T05:13:28;10.50;99.90
27797;DHT22;15177;50.844;4.412;2022-09-28T05:15:55;10.50;99.90
27797;DHT22;15177;50.844;4.412;2022-09-28T05:18:21;10.50;99.90
27797;DHT22;15177;50.844;4.412;2022-09-28T05:20:48;10.40;99.90
27797;DHT22;15177;50.844;4.412;2022-09-28T05:23:15;10.40;99.90
27797;DHT22;15177;50.844;4.412;2022-09-28T05:25:42;10.30;99.90
27797;DHT22;15177;50.844;4.412;2022-09-28T05:28:08;10.20;99.90
27797;DHT22;15177;50.844;4.412;2022-09-28T05:30:34;10.30;99.90
27797;DHT22;15177;50.844;4.412;2022-09-28T05:33:00;10.30;99.90
27797;DHT22;15177;50.844;4.412;2022-09-28T05:35:26;10.20;99.90
27797;DHT22;15177;50.844;4.412;2022-09-28T05:37:52;10.30;99.90
27797;DHT22;15177;50.844;4.412;2022-09-28T05:40:19;10.20;99.90
27797;DHT22;15177;50.844;4.412;2022-09-28T05:42:46;10.10;99.90
27797;DHT22;15177;50.844;4.412;2022-09-28T05:45:11;10.20;99.90
27797;DHT22;15177;50.844;4.412;2022-09-28T05:47:40;10.30;99.90
27797;DHT22;15177;50.844;4.412;2022-09-28T05:50:08;10.20;99.90
27797;DHT22;15177;50.844;4.412;2022-09-28T05:52:38;10.20;99.90
27797;DHT22;15177;50.844;4.412;2022-09-28T05:55:06;10.30;99.90
27797;DHT22;15177;50.844;4.412;2022-09-28T05:57:32;10.20;99.90
27797;DHT22;15177;50.844;4.412;2022-09-28T05:59:58;10.20;99.90
27797;DHT22;15177;50.844;4.412;2022-09-28T06:02:24;10.20;99.90
27797;DHT22;15177;50.844;4.412;2022-09-28T06:04:49;10.30;99.90
27797;DHT22;15177;50.844;4.412;2022-09-28T06:07:16;10.40;99.90
27797;DHT22;15177;50.844;4.412;2022-09-28T06:09:42;10.50;99.90
27797;DHT22;15177;50.844;4.412;2022-09-28T06:12:08;10.60;99.90
27797;DHT22;15177;50.844;4.412;2022-09-28T06:14:33;10.70;99.90
27797;DHT22;15177;50.844;4.412;2022-09-28T06:16:59;10.90;99.90
27797;DHT22;15177;50.844;4.412;2022-09-28T06:19:25;11.00;99.90
27797;DHT22;15177;50.844;4.412;2022-09-28T06:21:51;11.00;99.90
27797;DHT22;15177;50.844;4.412;2022-09-28T06:24:17;11.10;99.90
27797;DHT22;15177;50.844;4.412;2022-09-28T06:26:42;11.10;99.90
27797;DHT22;15177;50.844;4.412;2022-09-28T06:29:08;11.10;99.90
27797;DHT22;15177;50.844;4.412;2022-09-28T06:31:34;11.10;99.90
27797;DHT22;15177;50.844;4.412;2022-09-28T06:33:59;11.20;99.90
27797;DHT22;15177;50.844;4.412;2022-09-28T06:36:27;11.30;99.90
27797;DHT22;15177;50.844;4.412;2022-09-28T06:38:55;11.50;99.90
27797;DHT22;15177;50.844;4.412;2022-09-28T06:41:21;11.70;99.90
27797;DHT22;15177;50.844;4.412;2022-09-28T06:43:47;12.00;99.90
27797;DHT22;15177;50.844;4.412;2022-09-28T06:46:13;12.80;99.90
27797;DHT22;15177;50.844;4.412;2022-09-28T06:48:39;14.00;99.90
27797;DHT22;15177;50.844;4.412;2022-09-28T06:51:05;15.30;99.90
27797;DHT22;15177;50.844;4.412;2022-09-28T06:53:31;16.70;99.90
27797;DHT22;15177;50.844;4.412;2022-09-28T06:55:57;18.00;99.90
27797;DHT22;15177;50.844;4.412;2022-09-28T06:58:23;19.20;99.90
27797;DHT22;15177;50.844;4.412;2022-09-28T07:00:51;20.20;99.90
27797;DHT22;15177;50.844;4.412;2022-09-28T07:03:20;21.00;99.90
27797;DHT22;15177;50.844;4.412;2022-09-28T07:05:48;21.60;98.60
27797;DHT22;15177;50.844;4.412;2022-09-28T07:08:15;22.20;96.90
27797;DHT22;15177;50.844;4.412;2022-09-28T07:10:43;22.70;94.80
27797;DHT22;15177;50.844;4.412;2022-09-28T07:13:09;23.10;93.20
27797;DHT22;15177;50.844;4.412;2022-09-28T07:15:35;23.60;92.00
27797;DHT22;15177;50.844;4.412;2022-09-28T07:18:03;24.00;90.40
27797;DHT22;15177;50.844;4.412;2022-09-28T07:20:31;24.20;88.10
27797;DHT22;15177;50.844;4.412;2022-09-28T07:22:59;24.40;86.30
27797;DHT22;15177;50.844;4.412;2022-09-28T07:25:25;24.30;84.60
27797;DHT22;15177;50.844;4.412;2022-09-28T07:27:56;24.40;83.40
27797;DHT22;15177;50.844;4.412;2022-09-28T07:30:25;24.60;84.10
27797;DHT22;15177;50.844;4.412;2022-09-28T07:32:52;24.40;83.50
27797;DHT22;15177;50.844;4.412;2022-09-28T07:35:18;24.50;81.00
27797;DHT22;15177;50.844;4.412;2022-09-28T07:37:44;24.70;80.40
27797;DHT22;15177;50.844;4.412;2022-09-28T07:40:10;24.80;79.70
27797;DHT22;15177;50.844;4.412;2022-09-28T07:42:55;24.90;79.60
27797;DHT22;15177;50.844;4.412;2022-09-28T07:45:21;25.00;79.10
27797;DHT22;15177;50.844;4.412;2022-09-28T07:47:54;25.10;77.90
27797;DHT22;15177;50.844;4.412;2022-09-28T07:50:22;25.10;77.50
27797;DHT22;15177;50.844;4.412;2022-09-28T07:52:48;25.10;78.20
27797;DHT22;15177;50.844;4.412;2022-09-28T07:55:14;25.10;76.60
27797;DHT22;15177;50.844;4.412;2022-09-28T07:57:40;25.20;76.50
27797;DHT22;15177;50.844;4.412;2022-09-28T08:00:06;25.60;76.90
27797;DHT22;15177;50.844;4.412;2022-09-28T08:02:34;25.80;75.00
27797;DHT22;15177;50.844;4.412;2022-09-28T08:05:00;26.00;74.40
27797;DHT22;15177;50.844;4.412;2022-09-28T08:07:27;26.20;73.90
27797;DHT22;15177;50.844;4.412;2022-09-28T08:09:52;26.20;72.20
27797;DHT22;15177;50.844;4.412;2022-09-28T08:12:19;26.20;73.40
27797;DHT22;15177;50.844;4.412;2022-09-28T08:14:46;26.20;72.90
27797;DHT22;15177;50.844;4.412;2022-09-28T08:17:12;26.20;73.00
27797;DHT22;15177;50.844;4.412;2022-09-28T08:19:39;26.30;71.60
27797;DHT22;15177;50.844;4.412;2022-09-28T08:22:24;26.30;71.60
27797;DHT22;15177;50.844;4.412;2022-09-28T08:24:50;26.60;72.30
27797;DHT22;15177;50.844;4.412;2022-09-28T08:27:16;26.60;70.00
27797;DHT22;15177;50.844;4.412;2022-09-28T08:29:42;26.60;70.70
27797;DHT22;15177;50.844;4.412;2022-09-28T08:32:09;26.60;70.50
27797;DHT22;15177;50.844;4.412;2022-09-28T08:34:36;26.40;72.40
27797;DHT22;15177;50.844;4.412;2022-09-28T08:37:03;26.20;71.30
27797;DHT22;15177;50.844;4.412;2022-09-28T08:39:29;26.30;71.10
27797;DHT22;15177;50.844;4.412;2022-09-28T08:44:57;26.30;71.70
27797;DHT22;15177;50.844;4.412;2022-09-28T08:47:32;26.30;73.00
27797;DHT22;15177;50.844;4.412;2022-09-28T08:50:23;26.40;72.00
27797;DHT22;15177;50.844;4.412;2022-09-28T08:52:56;26.50;72.50
27797;DHT22;15177;50.844;4.412;2022-09-28T08:58:07;26.60;70.20
27797;DHT22;15177;50.844;4.412;2022-09-28T09:00:41;26.50;70.90
27797;DHT22;15177;50.844;4.412;2022-09-28T09:03:12;26.60;70.40
27797;DHT22;15177;50.844;4.412;2022-09-28T09:22:38;25.70;73.70
27797;DHT22;15177;50.844;4.412;2022-09-28T09:25:20;25.90;74.30
27797;DHT22;15177;50.844;4.412;2022-09-28T09:28:43;26.00;72.90
27797;DHT22;15177;50.844;4.412;2022-09-28T09:39:05;26.70;71.00
27797;DHT22;15177;50.844;4.412;2022-09-28T09:41:44;26.60;69.70
27797;DHT22;15177;50.844;4.412;2022-09-28T09:47:03;25.80;71.00
27797;DHT22;15177;50.844;4.412;2022-09-28T09:49:50;25.50;76.00
27797;DHT22;15177;50.844;4.412;2022-09-28T09:58:15;25.60;74.20
27797;DHT22;15177;50.844;4.412;2022-09-28T10:00:45;25.90;73.80
27797;DHT22;15177;50.844;4.412;2022-09-28T10:03:25;25.80;74.40
27797;DHT22;15177;50.844;4.412;2022-09-28T10:06:00;25.90;71.30
27797;DHT22;15177;50.844;4.412;2022-09-28T10:08:31;25.30;71.80
27797;DHT22;15177;50.844;4.412;2022-09-28T10:11:11;24.80;73.50
27797;DHT22;15177;50.844;4.412;2022-09-28T10:13:38;24.20;73.20
27797;DHT22;15177;50.844;4.412;2022-09-28T10:16:05;23.60;76.40
27797;DHT22;15177;50.844;4.412;2022-09-28T10:18:32;23.10;79.60
27797;DHT22;15177;50.844;4.412;2022-09-28T10:20:58;22.60;79.80
27797;DHT22;15177;50.844;4.412;2022-09-28T10:23:29;22.00;82.40
27797;DHT22;15177;50.844;4.412;2022-09-28T10:26:01;21.70;84.30
27797;DHT22;15177;50.844;4.412;2022-09-28T10:28:54;21.80;86.60
27797;DHT22;15177;50.844;4.412;2022-09-28T10:31:40;22.00;85.90
27797;DHT22;15177;50.844;4.412;2022-09-28T10:34:09;22.20;88.10
27797;DHT22;15177;50.844;4.412;2022-09-28T10:37:03;22.50;83.20
27797;DHT22;15177;50.844;4.412;2022-09-28T10:42:10;22.90;81.80
27797;DHT22;15177;50.844;4.412;2022-09-28T10:45:05;22.40;79.00
27797;DHT22;15177;50.844;4.412;2022-09-28T10:47:44;21.40;81.10
27797;DHT22;15177;50.844;4.412;2022-09-28T10:50:24;20.90;85.80
27797;DHT22;15177;50.844;4.412;2022-09-28T10:52:50;20.50;89.80
27797;DHT22;15177;50.844;4.412;2022-09-28T10:55:32;20.10;90.40
27797;DHT22;15177;50.844;4.412;2022-09-28T10:58:26;19.90;90.40
27797;DHT22;15177;50.844;4.412;2022-09-28T11:00:59;19.50;91.80
27797;DHT22;15177;50.844;4.412;2022-09-28T11:03:27;19.20;92.90
27797;DHT22;15177;50.844;4.412;2022-09-28T11:06:00;19.10;93.30
27797;DHT22;15177;50.844;4.412;2022-09-28T11:08:36;18.80;93.50
27797;DHT22;15177;50.844;4.412;2022-09-28T11:11:08;18.60;94.30
27797;DHT22;15177;50.844;4.412;2022-09-28T11:16:32;18.40;97.40
27797;DHT22;15177;50.844;4.412;2022-09-28T11:19:03;18.30;98.10
27797;DHT22;15177;50.844;4.412;2022-09-28T11:21:39;17.90;98.70
27797;DHT22;15177;50.844;4.412;2022-09-28T11:24:20;17.90;99.90
27797;DHT22;15177;50.844;4.412;2022-09-28T11:26:53;18.10;99.90
27797;DHT22;15177;50.844;4.412;2022-09-28T11:31:51;18.10;98.40
27797;DHT22;15177;50.844;4.412;2022-09-28T11:34:22;18.10;98.40
27797;DHT22;15177;50.844;4.412;2022-09-28T11:43:19;18.50;97.30
27797;DHT22;15177;50.844;4.412;2022-09-28T11:48:08;18.70;96.20
27797;DHT22;15177;50.844;4.412;2022-09-28T11:50:53;18.90;96.20
27797;DHT22;15177;50.844;4.412;2022-09-28T11:53:48;18.70;94.90
27797;DHT22;15177;50.844;4.412;2022-09-28T11:58:52;18.30;96.60
27797;DHT22;15177;50.844;4.412;2022-09-28T12:04:13;18.50;96.50
27797;DHT22;15177;50.844;4.412;2022-09-28T12:15:10;18.20;96.00
27797;DHT22;15177;50.844;4.412;2022-09-28T12:18:05;18.30;95.50
27797;DHT22;15177;50.844;4.412;2022-09-28T12:20:43;18.20;96.10
27797;DHT22;15177;50.844;4.412;2022-09-28T12:25:43;18.10;97.40
27797;DHT22;15177;50.844;4.412;2022-09-28T12:31:31;17.90;95.20
27797;DHT22;15177;50.844;4.412;2022-09-28T12:34:01;17.60;95.20
27797;DHT22;15177;50.844;4.412;2022-09-28T12:50:24;17.50;97.70
27797;DHT22;15177;50.844;4.412;2022-09-28T12:56:02;17.20;98.70
27797;DHT22;15177;50.844;4.412;2022-09-28T13:01:20;17.30;99.70
27797;DHT22;15177;50.844;4.412;2022-09-28T13:09:23;17.70;97.90
27797;DHT22;15177;50.844;4.412;2022-09-28T13:20:16;18.50;96.10
27797;DHT22;15177;50.844;4.412;2022-09-28T13:26:07;18.60;95.70
27797;DHT22;15177;50.844;4.412;2022-09-28T13:28:36;18.70;95.20
27797;DHT22;15177;50.844;4.412;2022-09-28T13:31:03;18.60;95.00
27797;DHT22;15177;50.844;4.412;2022-09-28T13:33:33;18.60;95.50
27797;DHT22;15177;50.844;4.412;2022-09-28T13:38:55;18.40;94.30
27797;DHT22;15177;50.844;4.412;2022-09-28T13:41:36;18.40;95.90
27797;DHT22;15177;50.844;4.412;2022-09-28T13:49:40;18.80;93.00
27797;DHT22;15177;50.844;4.412;2022-09-28T13:55:17;18.70;92.50
27797;DHT22;15177;50.844;4.412;2022-09-28T13:57:59;18.70;92.90
27797;DHT22;15177;50.844;4.412;2022-09-28T14:00:48;18.70;93.50
27797;DHT22;15177;50.844;4.412;2022-09-28T14:16:42;16.90;99.90
27797;DHT22;15177;50.844;4.412;2022-09-28T14:19:17;16.80;99.90
27797;DHT22;15177;50.844;4.412;2022-09-28T14:27:22;16.40;99.90
27797;DHT22;15177;50.844;4.412;2022-09-28T14:32:39;16.50;99.90
27797;DHT22;15177;50.844;4.412;2022-09-28T14:35:06;16.20;99.90
27797;DHT22;15177;50.844;4.412;2022-09-28T14:37:41;16.10;99.90
27797;DHT22;15177;50.844;4.412;2022-09-28T14:40:30;16.20;99.90
27797;DHT22;15177;50.844;4.412;2022-09-28T14:43:27;16.30;99.90
27797;DHT22;15177;50.844;4.412;2022-09-28T14:53:50;16.60;99.90
27797;DHT22;15177;50.844;4.412;2022-09-28T14:56:17;16.70;99.90
27797;DHT22;15177;50.844;4.412;2022-09-28T14:58:45;16.70;99.90
27797;DHT22;15177;50.844;4.412;2022-09-28T15:01:17;16.80;99.90
27797;DHT22;15177;50.844;4.412;2022-09-28T15:03:50;16.90;99.90
27797;DHT22;15177;50.844;4.412;2022-09-28T15:06:16;17.00;99.90
27797;DHT22;15177;50.844;4.412;2022-09-28T15:08:45;17.00;99.90
27797;DHT22;15177;50.844;4.412;2022-09-28T15:11:24;16.60;99.90
27797;DHT22;15177;50.844;4.412;2022-09-28T15:14:04;16.50;99.90
27797;DHT22;15177;50.844;4.412;2022-09-28T15:16:30;16.60;99.90
27797;DHT22;15177;50.844;4.412;2022-09-28T15:21:36;16.60;99.90
27797;DHT22;15177;50.844;4.412;2022-09-28T15:24:32;16.70;99.90
27797;DHT22;15177;50.844;4.412;2022-09-28T15:27:03;16.90;99.90
27797;DHT22;15177;50.844;4.412;2022-09-28T15:29:37;16.80;99.90
27797;DHT22;15177;50.844;4.412;2022-09-28T15:32:02;16.70;99.90
27797;DHT22;15177;50.844;4.412;2022-09-28T15:34:34;16.50;99.90
27797;DHT22;15177;50.844;4.412;2022-09-28T15:37:23;16.40;99.90
27797;DHT22;15177;50.844;4.412;2022-09-28T15:39:52;16.30;99.90
27797;DHT22;15177;50.844;4.412;2022-09-28T15:42:21;16.30;99.90
27797;DHT22;15177;50.844;4.412;2022-09-28T15:45:44;16.20;99.90
27797;DHT22;15177;50.844;4.412;2022-09-28T15:47:55;16.10;99.90
27797;DHT22;15177;50.844;4.412;2022-09-28T15:50:30;16.00;99.90
27797;DHT22;15177;50.844;4.412;2022-09-28T15:52:59;16.00;99.90
27797;DHT22;15177;50.844;4.412;2022-09-28T15:55:32;16.00;99.90
27797;DHT22;15177;50.844;4.412;2022-09-28T15:58:19;15.90;99.90
27797;DHT22;15177;50.844;4.412;2022-09-28T16:00:47;15.70;99.90
27797;DHT22;15177;50.844;4.412;2022-09-28T16:03:26;15.60;99.90
27797;DHT22;15177;50.844;4.412;2022-09-28T16:06:05;15.70;99.90
27797;DHT22;15177;50.844;4.412;2022-09-28T16:11:20;15.70;99.90
27797;DHT22;15177;50.844;4.412;2022-09-28T16:14:06;15.80;99.90
27797;DHT22;15177;50.844;4.412;2022-09-28T16:16:48;15.90;99.90
27797;DHT22;15177;50.844;4.412;2022-09-28T16:19:50;16.10;99.90
27797;DHT22;15177;50.844;4.412;2022-09-28T16:22:19;16.20;99.90
27797;DHT22;15177;50.844;4.412;2022-09-28T16:24:56;16.20;99.90
27797;DHT22;15177;50.844;4.412;2022-09-28T16:27:43;16.30;99.90
27797;DHT22;15177;50.844;4.412;2022-09-28T16:30:13;16.40;99.90
27797;DHT22;15177;50.844;4.412;2022-09-28T16:32:59;16.50;99.90
27797;DHT22;15177;50.844;4.412;2022-09-28T16:35:31;16.70;99.90
27797;DHT22;15177;50.844;4.412;2022-09-28T16:38:02;16.70;99.90
27797;DHT22;15177;50.844;4.412;2022-09-28T16:40:31;16.60;99.90
27797;DHT22;15177;50.844;4.412;2022-09-28T16:43:01;16.40;99.90
27797;DHT22;15177;50.844;4.412;2022-09-28T16:45:28;16.30;99.90
27797;DHT22;15177;50.844;4.412;2022-09-28T16:47:55;16.40;99.90
27797;DHT22;15177;50.844;4.412;2022-09-28T16:50:23;16.30;99.90
27797;DHT22;15177;50.844;4.412;2022-09-28T16:53:11;16.30;99.90
27797;DHT22;15177;50.844;4.412;2022-09-28T16:55:54;16.20;99.90
27797;DHT22;15177;50.844;4.412;2022-09-28T16:58:20;16.10;99.90
27797;DHT22;15177;50.844;4.412;2022-09-28T17:00:46;16.00;99.90
27797;DHT22;15177;50.844;4.412;2022-09-28T17:03:16;16.10;99.90
27797;DHT22;15177;50.844;4.412;2022-09-28T17:05:46;16.00;99.90
27797;DHT22;15177;50.844;4.412;2022-09-28T17:08:14;16.10;99.90
27797;DHT22;15177;50.844;4.412;2022-09-28T17:10:54;16.00;99.90
27797;DHT22;15177;50.844;4.412;2022-09-28T17:13:21;15.80;99.90
27797;DHT22;15177;50.844;4.412;2022-09-28T17:16:05;15.80;99.90
27797;DHT22;15177;50.844;4.412;2022-09-28T17:18:34;15.70;99.90
27797;DHT22;15177;50.844;4.412;2022-09-28T17:21:05;15.50;99.90
27797;DHT22;15177;50.844;4.412;2022-09-28T17:23:31;15.40;99.90
27797;DHT22;15177;50.844;4.412;2022-09-28T17:25:59;15.40;99.90
27797;DHT22;15177;50.844;4.412;2022-09-28T17:28:31;15.40;99.90
27797;DHT22;15177;50.844;4.412;2022-09-28T17:30:57;15.30;99.90
27797;DHT22;15177;50.844;4.412;2022-09-28T17:33:23;15.10;99.90
27797;DHT22;15177;50.844;4.412;2022-09-28T17:35:51;15.10;99.90
27797;DHT22;15177;50.844;4.412;2022-09-28T17:38:17;15.10;99.90
27797;DHT22;15177;50.844;4.412;2022-09-28T17:40:43;15.10;99.90
27797;DHT22;15177;50.844;4.412;2022-09-28T17:43:09;15.00;99.90
27797;DHT22;15177;50.844;4.412;2022-09-28T17:45:36;14.90;99.90
27797;DHT22;15177;50.844;4.412;2022-09-28T17:48:09;14.90;99.90
27797;DHT22;15177;50.844;4.412;2022-09-28T17:50:36;14.80;99.90
27797;DHT22;15177;50.844;4.412;2022-09-28T17:53:02;14.70;99.90
27797;DHT22;15177;50.844;4.412;2022-09-28T17:55:32;14.50;99.90
27797;DHT22;15177;50.844;4.412;2022-09-28T17:58:00;14.40;99.90
27797;DHT22;15177;50.844;4.412;2022-09-28T18:00:26;14.30;99.90
27797;DHT22;15177;50.844;4.412;2022-09-28T18:02:55;14.20;99.90
27797;DHT22;15177;50.844;4.412;2022-09-28T18:05:21;14.20;99.90
27797;DHT22;15177;50.844;4.412;2022-09-28T18:07:50;14.20;99.90
27797;DHT22;15177;50.844;4.412;2022-09-28T18:10:18;14.20;99.90
27797;DHT22;15177;50.844;4.412;2022-09-28T18:12:46;14.20;99.90
27797;DHT22;15177;50.844;4.412;2022-09-28T18:15:12;14.20;99.90
27797;DHT22;15177;50.844;4.412;2022-09-28T18:17:38;14.20;99.90
27797;DHT22;15177;50.844;4.412;2022-09-28T18:20:09;14.00;99.90
27797;DHT22;15177;50.844;4.412;2022-09-28T18:22:35;14.10;99.90
27797;DHT22;15177;50.844;4.412;2022-09-28T18:25:01;14.10;99.90
27797;DHT22;15177;50.844;4.412;2022-09-28T18:27:28;14.10;99.90
27797;DHT22;15177;50.844;4.412;2022-09-28T18:29:54;14.20;99.90
27797;DHT22;15177;50.844;4.412;2022-09-28T18:32:21;14.00;99.90
27797;DHT22;15177;50.844;4.412;2022-09-28T18:34:47;13.90;99.90
27797;DHT22;15177;50.844;4.412;2022-09-28T18:37:13;14.00;99.90
27797;DHT22;15177;50.844;4.412;2022-09-28T18:39:38;14.10;99.90
27797;DHT22;15177;50.844;4.412;2022-09-28T18:42:05;14.00;99.90
27797;DHT22;15177;50.844;4.412;2022-09-28T18:44:31;14.00;99.90
27797;DHT22;15177;50.844;4.412;2022-09-28T18:46:57;13.90;99.90
27797;DHT22;15177;50.844;4.412;2022-09-28T18:49:23;13.80;99.90
27797;DHT22;15177;50.844;4.412;2022-09-28T18:51:49;13.70;99.90
27797;DHT22;15177;50.844;4.412;2022-09-28T18:54:15;13.50;99.90
27797;DHT22;15177;50.844;4.412;2022-09-28T18:56:41;13.40;99.90
27797;DHT22;15177;50.844;4.412;2022-09-28T18:59:08;13.40;99.90
27797;DHT22;15177;50.844;4.412;2022-09-28T19:01:35;13.60;99.90
27797;DHT22;15177;50.844;4.412;2022-09-28T19:04:05;13.60;99.90